createdAt,value
2022-12-18T00:01:26.022Z,92.44
2022-12-18T00:03:54.690Z,91.93
2022-12-18T00:06:23.186Z,92.36
2022-12-18T00:08:51.913Z,93.26
2022-12-18T00:11:21.419Z,93.70
2022-12-18T00:13:49.349Z,94.38
2022-12-18T00:16:21.773Z,93.78
2022-12-18T00:18:50.720Z,92.99
2022-12-18T00:21:18.907Z,92.29
2022-12-18T00:23:47.259Z,93.65
2022-12-18T00:26:23.129Z,93.80
2022-12-18T00:28:53.890Z,94.43
2022-12-18T00:31:24.785Z,93.99
2022-12-18T00:33:57.137Z,94.92
2022-12-18T00:36:26.667Z,95.42
2022-12-18T00:38:58.902Z,94.32
2022-12-18T00:41:45.821Z,93.45
2022-12-18T00:44:15.196Z,91.50
2022-12-18T00:46:43.634Z,92.76
2022-12-18T00:49:14.205Z,93.55
2022-12-18T00:51:41.667Z,94.36
2022-12-18T00:54:08.882Z,93.51
2022-12-18T00:56:48.074Z,94.04
2022-12-18T00:59:19.074Z,94.11
2022-12-18T01:01:47.621Z,93.90
2022-12-18T01:04:15.457Z,93.89
2022-12-18T01:06:46.002Z,94.43
2022-12-18T01:09:13.292Z,94.99
2022-12-18T01:11:40.497Z,94.61
2022-12-18T01:14:07.757Z,94.08
2022-12-18T01:16:34.912Z,93.14
2022-12-18T01:19:02.058Z,94.05
2022-12-18T01:21:29.197Z,94.31
2022-12-18T01:23:57.655Z,94.37
2022-12-18T01:26:26.167Z,93.70
2022-12-18T01:28:55.478Z,93.63
2022-12-18T01:31:30.457Z,93.50
2022-12-18T01:33:58.460Z,94.92
2022-12-18T01:36:29.517Z,95.54
2022-12-18T01:38:57.904Z,96.54
2022-12-18T01:41:27.541Z,96.02
2022-12-18T01:43:58.191Z,96.50
2022-12-18T01:46:27.103Z,96.03
2022-12-18T01:49:00.576Z,95.65
2022-12-18T01:51:31.450Z,95.39
2022-12-18T01:53:59.995Z,95.82
2022-12-18T01:56:27.701Z,96.45
2022-12-18T01:59:04.172Z,96.87
2022-12-18T02:01:33.343Z,96.99
2022-12-18T02:04:26.262Z,96.97
2022-12-18T02:07:30.820Z,96.47
2022-12-18T02:10:11.777Z,97.14
2022-12-18T02:13:05.844Z,96.45
2022-12-18T02:15:40.269Z,97.01
2022-12-18T02:18:15.028Z,97.34
2022-12-18T02:20:48.869Z,97.29
2022-12-18T02:23:33.429Z,97.72
2022-12-18T02:26:07.483Z,97.67
2022-12-18T02:28:41.055Z,96.87
2022-12-18T02:31:14.388Z,96.90
2022-12-18T02:33:44.177Z,96.38
2022-12-18T02:36:13.873Z,96.83
2022-12-18T02:38:44.957Z,96.42
2022-12-18T02:41:16.822Z,96.12
2022-12-18T02:43:56.382Z,96.57
2022-12-18T02:46:33.335Z,96.14
2022-12-18T02:49:24.343Z,96.63
2022-12-18T02:51:56.367Z,95.50
2022-12-18T02:54:23.828Z,95.33
2022-12-18T02:56:57.056Z,96.32
2022-12-18T02:59:59.341Z,97.14
2022-12-18T03:02:47.566Z,97.70
2022-12-18T03:05:25.862Z,96.84
2022-12-18T03:07:59.464Z,96.94
2022-12-18T03:10:33.162Z,96.17
2022-12-18T03:13:22.951Z,95.11
2022-12-18T03:15:56.848Z,95.58
2022-12-18T03:18:33.807Z,95.83
2022-12-18T03:21:06.405Z,95.94
2022-12-18T03:23:42.086Z,96.95
2022-12-18T03:26:15.669Z,96.75
2022-12-18T03:29:00.782Z,96.09
2022-12-18T03:31:31.703Z,94.68
2022-12-18T03:34:02.174Z,94.01
2022-12-18T03:36:38.821Z,95.09
2022-12-18T03:39:06.649Z,94.17
2022-12-18T03:41:46.156Z,93.88
2022-12-18T03:44:35.762Z,94.11
2022-12-18T03:47:34.575Z,94.93
2022-12-18T03:50:16.064Z,94.33
2022-12-18T03:53:14.394Z,93.97
2022-12-18T03:55:43.566Z,94.94
2022-12-18T03:58:18.479Z,96.01
2022-12-18T04:01:10.871Z,96.33
2022-12-18T04:03:39.177Z,96.49
2022-12-18T04:06:08.817Z,95.94
2022-12-18T04:08:40.940Z,95.94
2022-12-18T04:11:10.746Z,96.58
2022-12-18T04:13:40.267Z,96.35
2022-12-18T04:16:13.560Z,95.02
2022-12-18T04:18:43.842Z,94.78
2022-12-18T04:21:11.276Z,94.34
2022-12-18T04:23:39.128Z,94.59
2022-12-18T04:26:07.482Z,93.76
2022-12-18T04:28:52.518Z,94.35
2022-12-18T04:31:19.692Z,96.90
2022-12-18T04:33:47.983Z,96.39
2022-12-18T04:36:15.870Z,96.86
2022-12-18T04:38:45.121Z,96.65
2022-12-18T04:41:15.841Z,96.69
2022-12-18T04:43:46.516Z,96.56
2022-12-18T04:46:13.848Z,97.03
2022-12-18T04:48:41.813Z,97.27
2022-12-18T04:51:08.919Z,97.84
2022-12-18T04:53:36.209Z,97.54
2022-12-18T04:56:04.588Z,96.55
2022-12-18T04:58:31.809Z,96.67
2022-12-18T05:00:59.120Z,96.62
2022-12-18T05:03:26.349Z,95.02
2022-12-18T05:05:53.976Z,94.95
2022-12-18T05:08:21.105Z,94.00
2022-12-18T05:10:48.262Z,93.54
2022-12-18T05:13:15.447Z,95.05
2022-12-18T05:15:42.895Z,95.19
2022-12-18T05:18:10.187Z,94.53
2022-12-18T05:20:37.523Z,95.00
2022-12-18T05:23:04.642Z,95.26
2022-12-18T05:25:31.770Z,95.44
2022-12-18T05:27:58.910Z,95.20
2022-12-18T05:30:26.925Z,95.31
2022-12-18T05:32:54.628Z,95.73
2022-12-18T05:35:22.581Z,95.75
2022-12-18T05:37:49.733Z,95.54
2022-12-18T05:40:16.920Z,95.41
2022-12-18T05:42:44.013Z,96.19
2022-12-18T05:45:11.283Z,96.52
2022-12-18T05:47:38.379Z,96.96
2022-12-18T05:50:06.122Z,96.15
2022-12-18T05:52:33.217Z,94.71
2022-12-18T05:55:00.365Z,95.26
2022-12-18T05:57:27.550Z,96.52
2022-12-18T05:59:54.683Z,96.47
2022-12-18T06:02:22.116Z,96.52
2022-12-18T06:04:49.337Z,95.99
2022-12-18T06:07:16.465Z,96.29
2022-12-18T06:09:43.567Z,96.54
2022-12-18T06:12:11.600Z,96.22
2022-12-18T06:14:38.891Z,96.81
2022-12-18T06:17:06.011Z,97.43
2022-12-18T06:19:33.162Z,95.69
2022-12-18T06:22:00.739Z,96.00
2022-12-18T06:24:27.857Z,95.58
2022-12-18T06:26:54.979Z,95.39
2022-12-18T06:29:22.104Z,96.21
2022-12-18T06:31:49.287Z,95.86
2022-12-18T06:34:16.420Z,95.27
2022-12-18T06:36:43.528Z,95.19
2022-12-18T06:39:10.684Z,95.08
2022-12-18T06:41:37.847Z,95.03
2022-12-18T06:44:05.031Z,95.80
2022-12-18T06:46:33.158Z,94.81
2022-12-18T06:49:00.227Z,94.10
2022-12-18T06:51:27.548Z,93.77
2022-12-18T06:53:54.670Z,94.84
2022-12-18T06:56:21.929Z,94.61
2022-12-18T06:58:51.882Z,95.48
2022-12-18T07:01:19.207Z,95.36
2022-12-18T07:03:46.510Z,94.95
2022-12-18T07:06:18.815Z,94.06
2022-12-18T07:08:47.041Z,92.72
2022-12-18T07:11:14.614Z,90.72
2022-12-18T07:13:42.235Z,91.94
2022-12-18T07:16:20.789Z,92.83
2022-12-18T07:18:51.277Z,94.20
2022-12-18T07:21:20.365Z,94.25
2022-12-18T07:23:49.086Z,92.54
2022-12-18T07:26:19.131Z,91.25
2022-12-18T07:28:47.010Z,91.74
2022-12-18T07:31:18.422Z,92.18
2022-12-18T07:33:46.816Z,92.10
2022-12-18T07:36:14.716Z,91.91
2022-12-18T07:38:42.426Z,88.73
2022-12-18T07:41:12.522Z,89.20
2022-12-18T07:43:41.788Z,88.70
2022-12-18T07:46:10.720Z,88.60
2022-12-18T07:48:45.384Z,87.11
2022-12-18T07:51:17.541Z,85.25
2022-12-18T07:53:45.849Z,84.27
2022-12-18T07:56:31.265Z,82.90
2022-12-18T07:59:00.193Z,82.42
2022-12-18T08:01:27.808Z,82.25
2022-12-18T08:03:55.139Z,82.64
2022-12-18T08:06:24.009Z,82.91
2022-12-18T08:08:56.369Z,82.49
2022-12-18T08:11:25.766Z,82.92
2022-12-18T08:13:53.014Z,83.23
2022-12-18T08:16:22.176Z,82.53
2022-12-18T08:18:49.456Z,80.86
2022-12-18T08:21:20.415Z,80.00
2022-12-18T08:23:49.052Z,78.15
2022-12-18T08:26:17.298Z,77.68
2022-12-18T08:28:45.078Z,77.57
2022-12-18T08:31:12.232Z,77.61
2022-12-18T08:33:40.598Z,77.00
2022-12-18T08:36:10.372Z,77.04
2022-12-18T08:38:37.573Z,76.44
2022-12-18T08:41:07.664Z,74.28
2022-12-18T08:43:53.643Z,73.84
2022-12-18T08:46:22.802Z,73.28
2022-12-18T08:48:51.885Z,73.81
2022-12-18T08:51:20.161Z,72.31
2022-12-18T08:53:48.211Z,72.43
2022-12-18T08:56:17.664Z,71.72
2022-12-18T08:58:45.072Z,70.49
2022-12-18T09:01:13.622Z,70.60
2022-12-18T09:03:41.447Z,71.82
2022-12-18T09:06:09.464Z,72.37
2022-12-18T09:08:37.876Z,74.33
2022-12-18T09:11:05.396Z,73.29
2022-12-18T09:13:32.500Z,71.93
2022-12-18T09:15:59.611Z,71.18
2022-12-18T09:18:26.687Z,70.28
2022-12-18T09:20:54.061Z,69.29
2022-12-18T09:23:23.443Z,67.42
2022-12-18T09:25:50.526Z,66.03
2022-12-18T09:28:20.089Z,64.88
2022-12-18T09:30:49.894Z,63.08
2022-12-18T09:33:17.975Z,64.14
2022-12-18T09:35:46.465Z,64.02
2022-12-18T09:38:16.798Z,63.75
2022-12-18T09:40:49.634Z,65.12
2022-12-18T09:43:51.130Z,64.09
2022-12-18T09:46:26.320Z,63.33
2022-12-18T09:48:57.488Z,63.84
2022-12-18T09:51:31.629Z,65.21
2022-12-18T09:54:06.427Z,63.75
2022-12-18T09:56:37.779Z,61.89
2022-12-18T09:59:05.809Z,61.92
2022-12-18T10:01:41.744Z,62.28
2022-12-18T10:04:11.558Z,62.64
2022-12-18T10:06:47.841Z,64.25
2022-12-18T10:09:27.119Z,63.84
2022-12-18T10:12:22.204Z,64.86
2022-12-18T10:14:49.287Z,64.43
2022-12-18T10:17:25.458Z,64.22
2022-12-18T10:20:00.059Z,63.85
2022-12-18T10:22:51.161Z,63.63
2022-12-18T10:25:29.783Z,63.44
2022-12-18T10:28:11.025Z,63.68
2022-12-18T10:30:40.013Z,64.11
2022-12-18T10:33:11.582Z,63.50
2022-12-18T10:35:42.748Z,63.71
2022-12-18T10:38:12.658Z,64.67
2022-12-18T10:40:49.823Z,64.83
2022-12-18T10:43:22.325Z,64.53
2022-12-18T10:46:08.016Z,64.11
2022-12-18T10:48:48.392Z,64.72
2022-12-18T10:51:24.299Z,64.50
2022-12-18T10:54:06.380Z,65.25
2022-12-18T10:56:37.522Z,64.82
2022-12-18T10:59:07.854Z,64.27
2022-12-18T11:01:55.934Z,62.44
2022-12-18T11:04:26.156Z,63.01
2022-12-18T11:07:01.811Z,63.18
2022-12-18T11:09:32.740Z,62.31
2022-12-18T11:12:02.758Z,62.72
2022-12-18T11:14:47.150Z,62.67
2022-12-18T11:17:29.092Z,61.46
2022-12-18T11:19:59.306Z,62.04
2022-12-18T11:22:28.641Z,62.09
2022-12-18T11:25:32.168Z,63.23
2022-12-18T11:28:00.032Z,62.68
2022-12-18T11:30:33.156Z,61.93
2022-12-18T11:33:17.256Z,63.01
2022-12-18T11:35:44.236Z,63.61
2022-12-18T11:38:20.207Z,61.43
2022-12-18T11:41:10.579Z,62.60
2022-12-18T11:43:53.855Z,62.81
2022-12-18T11:46:42.138Z,62.30
2022-12-18T11:49:27.586Z,60.18
2022-12-18T11:52:01.728Z,61.30
2022-12-18T11:54:28.876Z,60.81
2022-12-18T11:57:27.665Z,61.00
2022-12-18T12:00:04.761Z,62.50
2022-12-18T12:02:58.201Z,61.94
2022-12-18T12:05:50.940Z,62.74
2022-12-18T12:08:45.337Z,63.31
2022-12-18T12:11:44.028Z,61.84
2022-12-18T12:14:26.057Z,63.18
2022-12-18T12:17:02.407Z,60.60
2022-12-18T12:19:38.419Z,61.25
2022-12-18T12:22:28.912Z,62.18
2022-12-18T12:24:58.717Z,62.54
2022-12-18T12:27:34.780Z,61.38
2022-12-18T12:30:05.639Z,60.25
2022-12-18T12:32:53.664Z,61.03
2022-12-18T12:35:33.200Z,60.00
2022-12-18T12:38:12.446Z,59.21
2022-12-18T12:41:02.824Z,59.93
2022-12-18T12:43:49.557Z,60.83
2022-12-18T12:46:22.245Z,61.13
2022-12-18T12:48:57.540Z,60.71
2022-12-18T12:51:29.617Z,59.15
2022-12-18T12:53:59.068Z,60.80
2022-12-18T12:56:37.521Z,60.83
2022-12-18T12:59:13.771Z,60.93
2022-12-18T13:02:03.251Z,61.10
2022-12-18T13:05:24.442Z,60.14
2022-12-18T13:08:04.614Z,60.75
2022-12-18T13:10:37.261Z,62.72
2022-12-18T13:13:17.189Z,62.42
2022-12-18T13:16:09.065Z,61.93
2022-12-18T13:18:36.576Z,62.63
2022-12-18T13:21:31.512Z,62.74
2022-12-18T13:24:23.588Z,62.46
2022-12-18T13:26:50.715Z,64.61
2022-12-18T13:29:45.760Z,64.25
2022-12-18T13:32:22.813Z,63.56
2022-12-18T13:35:23.038Z,64.65
2022-12-18T13:37:56.285Z,63.85
2022-12-18T13:40:48.476Z,65.83
2022-12-18T13:43:18.548Z,65.70
2022-12-18T13:46:18.850Z,65.40
2022-12-18T13:49:02.748Z,64.83
2022-12-18T13:51:32.069Z,65.38
2022-12-18T13:54:19.640Z,63.97
2022-12-18T13:56:49.085Z,65.68
2022-12-18T13:59:23.269Z,66.77
2022-12-18T14:01:56.424Z,66.11
2022-12-18T14:04:28.351Z,65.03
2022-12-18T14:07:02.243Z,64.49
2022-12-18T14:09:32.541Z,65.26
2022-12-18T14:12:19.683Z,66.39
2022-12-18T14:14:49.878Z,66.78
2022-12-18T14:17:20.773Z,66.66
2022-12-18T14:19:52.058Z,66.79
2022-12-18T14:22:22.076Z,66.06
2022-12-18T14:25:14.193Z,66.39
2022-12-18T14:27:51.182Z,68.17
2022-12-18T14:30:31.331Z,68.13
2022-12-18T14:33:03.292Z,68.29
2022-12-18T14:35:30.925Z,68.10
2022-12-18T14:38:16.706Z,70.90
2022-12-18T14:40:44.968Z,69.74
2022-12-18T14:43:12.494Z,71.97
2022-12-18T14:45:45.280Z,71.39
2022-12-18T14:48:12.453Z,71.49
2022-12-18T14:50:41.000Z,71.18
2022-12-18T14:53:21.109Z,72.29
2022-12-18T14:55:49.665Z,73.02
2022-12-18T14:58:18.688Z,72.92
2022-12-18T15:00:45.796Z,74.53
2022-12-18T15:03:19.595Z,74.68
2022-12-18T15:05:47.161Z,74.26
2022-12-18T15:08:46.866Z,75.10
2022-12-18T15:11:35.692Z,76.11
2022-12-18T15:14:38.497Z,76.65
2022-12-18T15:17:15.904Z,77.11
2022-12-18T15:19:45.336Z,77.58
2022-12-18T15:22:19.947Z,77.74
2022-12-18T15:24:47.654Z,78.46
2022-12-18T15:27:47.412Z,78.92
2022-12-18T15:30:20.431Z,79.38
2022-12-18T15:32:48.068Z,79.37
2022-12-18T15:35:15.107Z,80.02
2022-12-18T15:37:43.393Z,80.55
2022-12-18T15:40:22.305Z,81.66
2022-12-18T15:43:10.385Z,82.12
2022-12-18T15:45:37.529Z,83.02
2022-12-18T15:48:31.180Z,84.09
2022-12-18T15:50:59.415Z,84.29
2022-12-18T15:53:31.267Z,84.27
2022-12-18T15:56:17.229Z,84.97
2022-12-18T15:58:44.308Z,86.21
2022-12-18T16:01:12.601Z,86.80
2022-12-18T16:03:40.215Z,87.32
2022-12-18T16:06:07.819Z,88.59
2022-12-18T16:08:34.989Z,89.66
2022-12-18T16:11:02.616Z,89.48
2022-12-18T16:13:29.797Z,90.08
2022-12-18T16:15:57.041Z,90.46
2022-12-18T16:18:24.173Z,91.09
2022-12-18T16:20:51.389Z,92.04
2022-12-18T16:23:18.486Z,91.60
2022-12-18T16:25:45.613Z,92.10
2022-12-18T16:28:12.708Z,92.49
2022-12-18T16:30:41.231Z,93.24
2022-12-18T16:33:10.646Z,93.56
2022-12-18T16:35:38.147Z,93.42
2022-12-18T16:38:05.407Z,93.09
2022-12-18T16:40:33.675Z,93.43
2022-12-18T16:43:00.790Z,93.90
2022-12-18T16:45:33.927Z,94.03
2022-12-18T16:48:01.086Z,94.13
2022-12-18T16:50:28.218Z,94.60
2022-12-18T16:52:55.329Z,93.97
2022-12-18T16:55:22.437Z,94.36
2022-12-18T16:57:49.513Z,94.95
2022-12-18T17:00:18.178Z,95.08
2022-12-18T17:02:45.408Z,96.48
2022-12-18T17:05:12.790Z,96.25
2022-12-18T17:07:39.927Z,96.48
2022-12-18T17:10:07.255Z,95.95
2022-12-18T17:12:34.349Z,95.91
2022-12-18T17:15:01.434Z,95.75
2022-12-18T17:17:28.572Z,95.58
2022-12-18T17:19:56.102Z,95.74
2022-12-18T17:22:23.345Z,95.73
2022-12-18T17:24:50.656Z,96.23
2022-12-18T17:27:17.781Z,96.66
2022-12-18T17:29:48.050Z,96.66
2022-12-18T17:32:16.965Z,96.85
2022-12-18T17:34:44.494Z,96.74
2022-12-18T17:37:11.739Z,96.96
2022-12-18T17:39:39.732Z,96.65
2022-12-18T17:42:06.904Z,96.72
2022-12-18T17:44:36.725Z,96.40
2022-12-18T17:47:04.101Z,96.08
2022-12-18T17:49:31.533Z,95.75
2022-12-18T17:51:58.648Z,95.61
2022-12-18T17:54:25.755Z,95.17
2022-12-18T17:56:52.839Z,95.08
2022-12-18T17:59:19.966Z,95.07
2022-12-18T18:01:47.266Z,95.68
2022-12-18T18:04:15.091Z,96.64
2022-12-18T18:06:42.374Z,96.19
2022-12-18T18:09:16.283Z,96.20
2022-12-18T18:12:03.386Z,95.90
2022-12-18T18:14:30.863Z,95.94
2022-12-18T18:16:58.754Z,96.34
2022-12-18T18:19:31.246Z,96.69
2022-12-18T18:21:58.435Z,96.69
2022-12-18T18:24:26.087Z,96.30
2022-12-18T18:26:56.497Z,97.02
2022-12-18T18:29:26.645Z,96.79
2022-12-18T18:31:54.443Z,97.24
2022-12-18T18:34:24.404Z,97.40
2022-12-18T18:36:52.115Z,96.94
2022-12-18T18:39:19.691Z,97.15
2022-12-18T18:41:48.555Z,97.49
2022-12-18T18:44:17.311Z,98.12
2022-12-18T18:46:45.065Z,98.33
2022-12-18T18:49:13.858Z,98.45
2022-12-18T18:51:42.119Z,98.09
2022-12-18T18:54:09.885Z,98.36
2022-12-18T18:57:11.341Z,98.58
2022-12-18T18:59:29.152Z,98.99
2022-12-18T19:02:00.658Z,99.15
2022-12-18T19:04:33.352Z,99.77
2022-12-18T19:07:00.931Z,100.00
2022-12-18T19:09:28.571Z,100.00
2022-12-18T19:12:15.007Z,100.00
2022-12-18T19:14:42.990Z,100.00
2022-12-18T19:17:10.712Z,100.00
2022-12-18T19:19:38.524Z,100.00
2022-12-18T19:22:05.996Z,100.00
2022-12-18T19:24:33.166Z,100.00
2022-12-18T19:27:00.283Z,99.92
2022-12-18T19:29:27.606Z,99.85
2022-12-18T19:31:54.785Z,99.91
2022-12-18T19:34:21.977Z,99.88
2022-12-18T19:36:49.099Z,100.00
2022-12-18T19:39:18.213Z,99.86
2022-12-18T19:41:47.539Z,99.59
2022-12-18T19:44:17.358Z,100.00
2022-12-18T19:46:46.170Z,100.00
2022-12-18T19:49:18.180Z,100.00
2022-12-18T19:51:45.663Z,100.00
2022-12-18T19:54:17.188Z,100.00
2022-12-18T19:56:45.836Z,100.00
2022-12-18T19:59:13.808Z,100.00
2022-12-18T20:01:41.446Z,100.00
2022-12-18T20:04:09.153Z,100.00
2022-12-18T20:06:46.427Z,100.00
2022-12-18T20:09:13.748Z,100.00
2022-12-18T20:11:41.939Z,100.00
2022-12-18T20:14:14.685Z,100.00
2022-12-18T20:16:49.482Z,100.00
2022-12-18T20:19:18.576Z,100.00
2022-12-18T20:21:46.081Z,100.00
2022-12-18T20:24:13.296Z,100.00
2022-12-18T20:26:40.610Z,100.00
2022-12-18T20:29:07.800Z,100.00
2022-12-18T20:31:34.966Z,100.00
2022-12-18T20:34:03.640Z,100.00
2022-12-18T20:36:34.103Z,100.00
2022-12-18T20:39:06.417Z,100.00
2022-12-18T20:41:37.885Z,100.00
2022-12-18T20:44:12.785Z,100.00
2022-12-18T20:46:57.909Z,100.00
2022-12-18T20:49:26.655Z,100.00
2022-12-18T20:51:56.235Z,100.00
2022-12-18T20:54:26.039Z,100.00
2022-12-18T20:56:53.345Z,100.00
2022-12-18T20:59:21.023Z,100.00
2022-12-18T21:01:49.520Z,100.00
2022-12-18T21:04:19.173Z,100.00
2022-12-18T21:06:53.050Z,100.00
2022-12-18T21:09:23.679Z,100.00
2022-12-18T21:12:14.182Z,100.00
2022-12-18T21:14:42.764Z,100.00
2022-12-18T21:17:10.581Z,100.00
2022-12-18T21:19:37.972Z,100.00
2022-12-18T21:22:05.577Z,100.00
2022-12-18T21:24:33.180Z,100.00
2022-12-18T21:27:00.492Z,100.00
2022-12-18T21:29:27.979Z,100.00
2022-12-18T21:31:55.222Z,100.00
2022-12-18T21:34:27.646Z,100.00
2022-12-18T21:36:57.233Z,100.00
2022-12-18T21:39:25.448Z,100.00
2022-12-18T21:42:11.372Z,100.00
2022-12-18T21:44:41.466Z,100.00
2022-12-18T21:47:21.537Z,100.00
2022-12-18T21:49:50.718Z,100.00
2022-12-18T21:52:18.119Z,100.00
2022-12-18T21:54:45.260Z,100.00
2022-12-18T21:57:13.426Z,100.00
2022-12-18T21:59:43.279Z,100.00
2022-12-18T22:02:19.869Z,100.00
2022-12-18T22:04:47.596Z,100.00
2022-12-18T22:07:16.379Z,100.00
2022-12-18T22:09:43.564Z,100.00
2022-12-18T22:12:13.502Z,100.00
2022-12-18T22:14:40.632Z,100.00
2022-12-18T22:17:07.716Z,100.00
2022-12-18T22:19:41.100Z,100.00
2022-12-18T22:22:10.125Z,100.00
2022-12-18T22:24:37.266Z,100.00
2022-12-18T22:27:04.351Z,100.00
2022-12-18T22:29:50.007Z,100.00
2022-12-18T22:32:17.841Z,100.00
2022-12-18T22:34:59.423Z,100.00
2022-12-18T22:37:30.552Z,100.00
2022-12-18T22:39:57.674Z,100.00
2022-12-18T22:42:25.236Z,100.00
2022-12-18T22:44:52.324Z,100.00
2022-12-18T22:47:19.425Z,100.00
2022-12-18T22:49:46.721Z,100.00
2022-12-18T22:52:13.865Z,100.00
2022-12-18T22:54:43.472Z,100.00
2022-12-18T22:57:10.620Z,100.00
2022-12-18T22:59:37.742Z,100.00
2022-12-18T23:02:05.326Z,100.00
2022-12-18T23:04:36.417Z,100.00
2022-12-18T23:07:05.175Z,100.00
2022-12-18T23:09:32.726Z,100.00
2022-12-18T23:12:00.253Z,100.00
2022-12-18T23:14:28.491Z,100.00
2022-12-18T23:16:56.372Z,100.00
2022-12-18T23:19:24.627Z,100.00
2022-12-18T23:21:51.808Z,100.00
2022-12-18T23:24:21.630Z,100.00
2022-12-18T23:26:48.714Z,100.00
2022-12-18T23:29:15.798Z,100.00
2022-12-18T23:31:42.948Z,100.00
2022-12-18T23:34:13.184Z,100.00
2022-12-18T23:36:45.502Z,100.00
2022-12-18T23:39:15.321Z,100.00
2022-12-18T23:41:55.987Z,100.00
2022-12-18T23:44:23.202Z,100.00
2022-12-18T23:46:50.378Z,100.00
2022-12-18T23:49:17.578Z,100.00
2022-12-18T23:51:44.669Z,100.00
2022-12-18T23:54:11.770Z,100.00
2022-12-18T23:56:38.965Z,100.00
2022-12-18T23:59:06.075Z,100.00
